• Join FlightAware (Why Join?)
  • Login
  • US Flag 
08:35AM EDT


 

Airport Tracker/Info


-or-


 

Live Flight TrackerFlight Track Log ✈ AAL2137 ✈ 06-Apr-2013 ✈ KDFW - MGGT / GUA

Flight Track Log - Related Links

Times and Time Zones

All times are in EDT time to prevent confusion due to time zone crossing. See the AAL2137 flight status page for this flight to view local times or setup timezone preferences in your user account.

Time Position Orientation Groundspeed Altitude Reporting Facility
EDT Latitude Longitude Course Direction KTS MPH feet Rate Location/Type
06:40PM 32.8500 -97.0500 164° South 177 204 2,300  Level Dallas / Fort Worth TRACON
06:42PM 32.5412 -96.8891 157° South  Level Estimated
06:42PM 32.7514 -97.0453 178° South 224 258 4,900  Level Fort Worth Center
06:43PM 32.4226 -96.8397 159° South  Level Estimated
06:43PM 32.6867 -97.0161 159° South 258 297 6,900  Level Fort Worth Center
06:44PM 32.2939 -96.8079 148° Southeast  Level FlightAware Approximate
06:44PM 32.6050 -96.9744 157° South 288 331 9,100  Level Fort Worth Center
06:45PM 32.1744 -96.7637 164° South  Level FlightAware Approximate
06:45PM 32.5278 -96.9353 157° South 302 348 10,800  Level Fort Worth Center
06:46PM 32.0535 -96.7234 164° South  Level FlightAware Approximate
06:46PM 32.4314 -96.8917 159° South 347 399 12,400  Level Fort Worth Center
06:47PM 32.3456 -96.8453 155° Southeast 377 434 13,700 1,860 Climbing Fort Worth Center
06:48PM 32.2453 -96.8017 160° South 409 471 16,200 2,940 Climbing Fort Worth Center
06:49PM 32.1156 -96.7511 162° South 414 476 19,600 2,700 Climbing Fort Worth Center
06:50PM 32.0025 -96.7078 162° South 419 482 21,700 2,160 Climbing Fort Worth Center
06:51PM 31.8917 -96.6669 163° South 421 484 24,000 1,980 Climbing Fort Worth Center
06:52PM 31.7767 -96.6192 161° South 427 491 25,700 1,380 Climbing Fort Worth Center
06:54PM 31.5125 -96.5108 161° South 468 539 28,700 1,260 Climbing Houston Center
06:55PM 31.3869 -96.4625 162° South 468 539 30,100 1,560 Climbing Houston Center
06:56PM 31.2394 -96.4053 162° South 472 543 32,000 1,440 Climbing Houston Center
06:57PM 31.1281 -96.3164 146° Southeast 478 550 33,100 1,140 Climbing Houston Center
06:58PM 31.0153 -96.2272 146° Southeast 482 555 34,400 1,200 Climbing Houston Center
06:59PM 30.9042 -96.1389 146° Southeast 476 548 35,700 1,080 Climbing Houston Center
07:00PM 30.7939 -96.0517 146° Southeast 473 544 36,700 600 Climbing Houston Center
07:01PM 30.6853 -95.9686 147° Southeast 468 539 37,000 120 Climbing Houston Center
07:03PM 30.5828 -95.8864 145° Southeast 466 536 37,000  Level Houston Center
07:04PM 30.4747 -95.8000 145° Southeast 470 541 37,000  Level Houston Center
07:05PM 30.3442 -95.6994 146° Southeast 468 539 37,000  Level Houston Center
07:06PM 30.2353 -95.6067 144° Southeast 472 543 37,000  Level Houston Center
07:07PM 30.1317 -95.5183 144° Southeast 475 547 37,000  Level Houston Center
07:08PM 30.0253 -95.4294 144° Southeast 474 545 37,000  Level Houston Center
07:09PM 29.9181 -95.3406 144° Southeast 474 545 37,000  Level Houston Center
07:10PM 29.8100 -95.2506 144° Southeast 476 548 37,000 -60 Level Houston Center
07:11PM 29.6903 -95.1525 145° Southeast 478 550 36,900  Descending Houston Center
07:12PM 29.5800 -95.0619 144° Southeast 484 557 37,000  Climbing Houston Center
07:13PM 29.4711 -94.9706 144° Southeast 491 565 37,000  Level Houston Center
07:14PM 29.3600 -94.8792 144° Southeast 490 564 37,000  Level Houston Center
07:15PM 29.2489 -94.7881 144° Southeast 490 564 37,000  Level Houston Center
07:16PM 29.1147 -94.6797 145° Southeast 491 565 37,000  Level Houston Center
07:17PM 29.0011 -94.5872 145° Southeast 499 574 37,000  Level Houston Center
07:18PM 28.8881 -94.4961 145° Southeast 498 573 37,000  Level Houston Center
07:19PM 28.7772 -94.4047 144° Southeast 494 568 37,000  Level Houston Center
07:20PM 28.6661 -94.3153 145° Southeast 491 565 37,000  Level Houston Center
07:21PM 28.5544 -94.2258 145° Southeast 491 565 37,000  Level Houston Center
07:22PM 28.4436 -94.1372 145° Southeast 488 562 37,000  Level Houston Center
07:23PM 28.3122 -94.0300 144° Southeast 486 559 37,000  Level Houston Center
07:24PM 28.2025 -93.9419 145° Southeast 483 556 37,000  Level Houston Center
07:25PM 28.0917 -93.8553 145° Southeast 483 556 37,000  Level Houston Center
07:26PM 27.9814 -93.7669 145° Southeast 485 558 37,000  Level Houston Center
07:27PM 27.8689 -93.6775 145° Southeast 491 565 37,000  Level Houston Center
07:28PM 27.7578 -93.5892 145° Southeast 489 563 37,000  Level Houston Center
07:29PM 27.6461 -93.5011 145° Southeast 489 563 37,000  Level Houston Center
07:30PM 27.5331 -93.4114 145° Southeast 495 570 37,000  Level Houston Center
07:31PM 27.3986 -93.3047 145° Southeast 494 568 37,000  Level Houston Center
07:32PM 27.2853 -93.2183 146° Southeast 492 566 37,000  Level Houston Center
07:33PM 27.1750 -93.1275 144° Southeast 492 566 37,000  Level Houston Center
07:34PM 27.0617 -93.0439 147° Southeast 489 563 37,000  Level Houston Center
07:35PM 26.9544 -92.9583 145° Southeast 487 560 37,000 -60 Level Houston Center
07:36PM 26.8214 -92.8539 145° Southeast 487 560 36,900 -120 Descending Houston Center
07:38PM 26.7122 -92.7753 149° Southeast  Level FlightAware Approximate
07:45PM 25.9648 -92.2854 149° Southeast  Level FlightAware Approximate
07:46PM 25.8579 -92.2159 150° Southeast  Level FlightAware Approximate
07:47PM 25.7513 -92.1460 149° Southeast  Level FlightAware Approximate
07:48PM 25.6447 -92.0760 149° Southeast  Level FlightAware Approximate
07:49PM 25.5381 -92.0062 149° Southeast  Level FlightAware Approximate
07:50PM 25.4314 -91.9364 149° Southeast  Level FlightAware Approximate
07:51PM 25.3248 -91.8668 149° Southeast  Level FlightAware Approximate
07:52PM 25.2181 -91.7973 149° Southeast  Level FlightAware Approximate
07:53PM 25.1113 -91.7280 150° Southeast  Level FlightAware Approximate
07:54PM 25.0046 -91.6587 150° Southeast  Level FlightAware Approximate
07:55PM 24.8978 -91.5896 150° Southeast  Level FlightAware Approximate
07:56PM 24.7909 -91.5206 150° Southeast  Level FlightAware Approximate
07:57PM 24.6841 -91.4517 150° Southeast  Level FlightAware Approximate
07:58PM 24.5767 -91.3826 150° Southeast  Level FlightAware Approximate
07:59PM 24.4676 -91.3171 155° Southeast  Level FlightAware Approximate
08:00PM 24.3544 -91.2605 155° Southeast  Level FlightAware Approximate
08:01PM 24.2410 -91.2045 157° South  Level FlightAware Approximate
08:02PM 24.1268 -91.1503 157° South  Level FlightAware Approximate
08:03PM 24.0127 -91.0963 157° South  Level FlightAware Approximate
08:04PM 23.8988 -91.0416 156° South  Level FlightAware Approximate
08:05PM 23.7852 -90.9861 156° South  Level FlightAware Approximate
08:06PM 23.6716 -90.9306 156° South  Level FlightAware Approximate
08:07PM 23.5581 -90.8753 156° South  Level FlightAware Approximate
08:08PM 23.4444 -90.8201 156° South  Level FlightAware Approximate
08:09PM 23.3308 -90.7649 156° South  Level FlightAware Approximate
08:10PM 23.2168 -90.7108 157° South  Level FlightAware Approximate
08:11PM 23.1026 -90.6572 157° South  Level FlightAware Approximate
08:12PM 22.9884 -90.6036 157° South  Level FlightAware Approximate
08:13PM 22.8742 -90.5501 157° South  Level FlightAware Approximate
08:14PM 22.7600 -90.4967 157° South  Level FlightAware Approximate
08:15PM 22.6457 -90.4434 157° South  Level FlightAware Approximate
08:16PM 22.5314 -90.3902 157° South  Level FlightAware Approximate
08:17PM 22.4172 -90.3369 157° South  Level FlightAware Approximate
08:18PM 22.3030 -90.2836 157° South  Level FlightAware Approximate
08:19PM 22.1888 -90.2304 157° South  Level FlightAware Approximate
08:20PM 22.0745 -90.1773 157° South  Level FlightAware Approximate
08:21PM 21.9603 -90.1243 157° South  Level FlightAware Approximate
08:22PM 21.8460 -90.0713 157° South  Level FlightAware Approximate
08:23PM 21.7317 -90.0185 157° South  Level FlightAware Approximate
08:24PM 21.6174 -89.9657 157° South  Level FlightAware Approximate
08:25PM 21.5031 -89.9128 157° South  Level FlightAware Approximate
08:26PM 21.3889 -89.8599 157° South  Level FlightAware Approximate
08:27PM 21.2739 -89.8068 157° South  Level FlightAware Approximate
08:28PM 21.1589 -89.7538 157° South  Level FlightAware Approximate
08:29PM 21.0439 -89.7009 157° South  Level FlightAware Approximate
08:30PM 20.9286 -89.6496 176° South  Level FlightAware Approximate
08:31PM 20.8037 -89.6397 176° South  Level FlightAware Approximate
08:32PM 20.6789 -89.6299 176° South  Level FlightAware Approximate
08:33PM 20.5541 -89.6200 176° South  Level FlightAware Approximate
08:34PM 20.4293 -89.6102 176° South  Level FlightAware Approximate
08:35PM 20.3045 -89.6003 176° South  Level FlightAware Approximate
08:36PM 20.1797 -89.5905 176° South  Level FlightAware Approximate
08:37PM 20.0549 -89.5807 176° South  Level FlightAware Approximate
08:38PM 19.9301 -89.5710 176° South  Level FlightAware Approximate
08:39PM 19.8053 -89.5612 176° South  Level FlightAware Approximate
08:40PM 19.6805 -89.5515 176° South  Level FlightAware Approximate
08:41PM 19.5556 -89.5417 176° South  Level FlightAware Approximate
08:42PM 19.4308 -89.5320 176° South  Level FlightAware Approximate
08:43PM 19.3060 -89.5223 176° South  Level FlightAware Approximate
08:44PM 19.1811 -89.5142 177° South  Level FlightAware Approximate
08:45PM 19.0560 -89.5084 177° South  Level FlightAware Approximate
08:46PM 18.9310 -89.5025 177° South  Level FlightAware Approximate
08:47PM 18.8060 -89.4967 177° South  Level FlightAware Approximate
08:48PM 18.6810 -89.4908 177° South  Level FlightAware Approximate
08:49PM 18.5559 -89.4850 177° South  Level FlightAware Approximate
08:50PM 18.4309 -89.4792 177° South  Level FlightAware Approximate
08:51PM 18.3059 -89.4734 177° South  Level FlightAware Approximate
08:52PM 18.1808 -89.4676 177° South  Level FlightAware Approximate
08:53PM 18.0558 -89.4618 177° South  Level FlightAware Approximate
08:54PM 17.9308 -89.4560 177° South  Level FlightAware Approximate
08:55PM 17.8057 -89.4503 177° South  Level FlightAware Approximate
08:56PM 17.6812 -89.4368 174° South  Level FlightAware Approximate
08:57PM 17.5566 -89.4253 175° South  Level FlightAware Approximate
08:58PM 17.4318 -89.4147 175° South  Level FlightAware Approximate
08:59PM 17.3071 -89.4041 175° South  Level FlightAware Approximate
09:00PM 17.1824 -89.3935 175° South  Level FlightAware Approximate
09:01PM 17.0576 -89.3829 175° South  Level FlightAware Approximate
09:02PM 16.9329 -89.3723 175° South  Level FlightAware Approximate
09:03PM 16.8079 -89.3667 180° South  Level FlightAware Approximate
09:04PM 16.7012 -89.4325 213° Southwest  Level FlightAware Approximate
09:05PM 16.5932 -89.4985 210° Southwest  Level FlightAware Approximate
09:06PM 16.4851 -89.5643 210° Southwest  Level FlightAware Approximate
09:07PM 16.3770 -89.6300 210° Southwest  Level FlightAware Approximate
09:08PM 16.2668 -89.6916 206° Southwest  Level FlightAware Approximate
09:09PM 16.1586 -89.7571 211° Southwest  Level FlightAware Approximate
09:10PM 16.0539 -89.8282 214° Southwest  Level FlightAware Approximate
09:11PM 15.9482 -89.8978 210° Southwest  Level FlightAware Approximate
09:12PM 15.8398 -89.9628 210° Southwest  Level FlightAware Approximate
09:13PM 15.7309 -90.0269 207° Southwest  Level FlightAware Approximate
09:14PM 15.6196 -90.0863 207° Southwest  Level FlightAware Approximate
09:15PM 15.5082 -90.1456 207° Southwest  Level FlightAware Approximate
09:16PM 15.4025 -90.2150 213° Southwest  Level FlightAware Approximate
09:17PM 15.2972 -90.2851 211° Southwest  Level FlightAware Approximate
09:18PM 15.1900 -90.3521 211° Southwest  Level FlightAware Approximate
09:19PM 15.0820 -90.4175 210° Southwest  Level FlightAware Approximate
09:20PM 14.9696 -90.4667 180° South  Level FlightAware Approximate
09:21PM 14.8450 -90.4788 186° South  Level FlightAware Approximate
09:22PM 14.7226 -90.5000 180° South  Level FlightAware Approximate
09:23PM 14.5990 -90.5167 180° South  Level FlightAware Approximate
09:24PM 14.5833 -90.5275 180° South  Level Estimated
09:25PM 14.5833 -90.5275 180° South  Level Estimated
09:26PM 14.5833 -90.5275 180° South  Level Estimated
09:27PM 14.5833 -90.5275 180° South  Level Estimated